createdAt,value
2023-05-07T00:00:28.000Z,96.3
2023-05-07T00:01:44.311Z,96.3
2023-05-07T00:03:00.500Z,96.3
2023-05-07T00:04:16.703Z,96.3
2023-05-07T00:05:14.898Z,96
2023-05-07T00:06:49.082Z,95.9
2023-05-07T00:08:04.000Z,95.9
2023-05-07T00:09:20.510Z,95.7
2023-05-07T00:10:35.735Z,95.6
2023-05-07T00:11:50.946Z,95.6
2023-05-07T00:13:07.140Z,95.8
2023-05-07T00:14:05.335Z,95.6
2023-05-07T00:15:39.000Z,95.5
2023-05-07T00:16:55.726Z,95.2
2023-05-07T00:18:11.924Z,95.2
2023-05-07T00:19:10.117Z,95.2
2023-05-07T00:20:44.000Z,95.3
2023-05-07T00:22:00.501Z,95.2
2023-05-07T00:23:16.000Z,95.2
2023-05-07T00:24:32.896Z,95
2023-05-07T00:25:49.000Z,94.7
2023-05-07T00:26:47.289Z,94.9
2023-05-07T00:28:21.482Z,94.7
2023-05-07T00:29:37.680Z,94.6
2023-05-07T00:30:53.867Z,94.5
2023-05-07T00:32:09.092Z,94.5
2023-05-07T00:33:25.277Z,94.6
2023-05-07T00:34:41.468Z,94.5
2023-05-07T00:36:24.000Z,94.6
2023-05-07T00:37:13.874Z,94.5
2023-05-07T00:38:29.000Z,94.4
2023-05-07T00:39:27.287Z,94.4
2023-05-07T00:41:00.509Z,94.4
2023-05-07T00:42:16.000Z,94.3
2023-05-07T00:43:32.900Z,94.5
2023-05-07T00:45:15.000Z,94.5
2023-05-07T00:46:05.000Z,94.5
2023-05-07T00:47:21.493Z,94.5
2023-05-07T00:48:36.713Z,94.5
2023-05-07T00:49:52.907Z,94.5
2023-05-07T00:51:08.000Z,94.3
2023-05-07T00:52:24.326Z,94.5
2023-05-07T00:53:40.000Z,94.4
2023-05-07T00:54:56.000Z,94.6
2023-05-07T00:56:12.000Z,94.6
2023-05-07T00:57:11.113Z,94.7
2023-05-07T00:58:44.326Z,94.6
2023-05-07T00:59:42.521Z,94.7
2023-05-07T01:01:16.000Z,94.7
2023-05-07T01:02:32.917Z,94.8
2023-05-07T01:03:49.102Z,95
2023-05-07T01:04:47.302Z,95.1
2023-05-07T01:06:21.500Z,95
2023-05-07T01:07:37.694Z,94.9
2023-05-07T01:08:53.890Z,95
2023-05-07T01:10:10.084Z,94.9
2023-05-07T01:11:26.000Z,94.8
2023-05-07T01:12:42.483Z,94.7
2023-05-07T01:13:58.677Z,94.6
2023-05-07T01:15:14.860Z,94.6
2023-05-07T01:16:30.000Z,94.8
2023-05-07T01:17:28.273Z,94.5
2023-05-07T01:19:01.496Z,94.2
2023-05-07T01:20:17.691Z,94.2
2023-05-07T01:21:15.887Z,94.4
2023-05-07T01:22:49.000Z,94.3
2023-05-07T01:24:05.000Z,94.5
2023-05-07T01:25:03.501Z,94.6
2023-05-07T01:26:37.000Z,94.5
2023-05-07T01:27:53.886Z,94.4
2023-05-07T01:29:09.000Z,94.3
2023-05-07T01:30:07.299Z,94.3
2023-05-07T01:31:41.000Z,94.3
2023-05-07T01:32:57.000Z,94.3
2023-05-07T01:34:13.876Z,94.2
2023-05-07T01:35:30.000Z,94.4
2023-05-07T01:36:46.272Z,94.4
2023-05-07T01:37:44.472Z,94.3
2023-05-07T01:39:18.668Z,94.1
2023-05-07T01:40:34.864Z,94
2023-05-07T01:41:51.000Z,94.1
2023-05-07T01:42:49.255Z,93.8
2023-05-07T01:44:23.448Z,93.8
2023-05-07T01:45:38.662Z,93.9
2023-05-07T01:46:54.859Z,93.7
2023-05-07T01:48:37.000Z,93.8
2023-05-07T01:49:27.251Z,93.9
2023-05-07T01:50:43.452Z,93.8
2023-05-07T01:51:40.666Z,93.8
2023-05-07T01:52:56.861Z,93.7
2023-05-07T01:54:30.084Z,93.6
2023-05-07T01:55:46.000Z,93.7
2023-05-07T01:57:01.486Z,93.5
2023-05-07T01:58:17.000Z,93.5
2023-05-07T01:59:33.883Z,93.6
2023-05-07T02:00:32.077Z,93.4
2023-05-07T02:02:06.000Z,93.1
2023-05-07T02:03:04.464Z,93.5
2023-05-07T02:04:38.000Z,93.5
2023-05-07T02:05:54.850Z,93.4
2023-05-07T02:07:11.045Z,93.4
2023-05-07T02:08:09.238Z,93.6
2023-05-07T02:09:43.431Z,93.8
2023-05-07T02:10:59.000Z,93.9
2023-05-07T02:12:15.810Z,93.9
2023-05-07T02:13:14.011Z,93.8
2023-05-07T02:14:47.226Z,93.5
2023-05-07T02:15:45.414Z,93.5
2023-05-07T02:17:19.000Z,93.7
2023-05-07T02:18:35.795Z,93.8
2023-05-07T02:19:51.984Z,93.9
2023-05-07T02:21:07.205Z,93.9
2023-05-07T02:22:50.000Z,94
2023-05-07T02:23:39.599Z,94
2023-05-07T02:24:55.000Z,93.9
2023-05-07T02:26:11.992Z,93.9
2023-05-07T02:27:27.191Z,94
2023-05-07T02:28:25.388Z,94
2023-05-07T02:29:59.573Z,93.8
2023-05-07T02:31:15.780Z,93.9
2023-05-07T02:32:31.000Z,94
2023-05-07T02:33:48.171Z,93.9
2023-05-07T02:35:04.352Z,93.9
2023-05-07T02:36:20.000Z,93.6
2023-05-07T02:37:36.733Z,93.9
2023-05-07T02:38:52.000Z,93.6
2023-05-07T02:40:09.000Z,93.5
2023-05-07T02:41:07.321Z,93.7
2023-05-07T02:42:41.514Z,93.7
2023-05-07T02:43:57.716Z,93.7
2023-05-07T02:45:13.000Z,93.6
2023-05-07T02:46:12.094Z,93.3
2023-05-07T02:47:46.287Z,93.1
2023-05-07T02:49:02.481Z,93.4
2023-05-07T02:50:18.679Z,93.4
2023-05-07T02:51:15.893Z,93.3
2023-05-07T02:52:50.085Z,93.2
2023-05-07T02:53:47.309Z,93.1
2023-05-07T02:55:20.000Z,92.9
2023-05-07T02:56:18.712Z,92.7
2023-05-07T02:57:33.932Z,92.5
2023-05-07T02:59:07.136Z,92.6
2023-05-07T03:00:23.326Z,92.7
2023-05-07T03:01:39.000Z,92.7
2023-05-07T03:02:55.721Z,92.1
2023-05-07T03:03:53.915Z,92.1
2023-05-07T03:05:28.000Z,92.3
2023-05-07T03:06:44.293Z,92.8
2023-05-07T03:08:00.487Z,92.8
2023-05-07T03:09:16.000Z,92.8
2023-05-07T03:10:32.000Z,92.8
2023-05-07T03:11:31.076Z,92.7
2023-05-07T03:13:05.264Z,92.7
2023-05-07T03:14:21.462Z,92.5
2023-05-07T03:15:37.000Z,92.5
2023-05-07T03:16:53.840Z,92.2
2023-05-07T03:18:09.054Z,92.2
2023-05-07T03:19:07.252Z,92.2
2023-05-07T03:20:41.452Z,92.5
2023-05-07T03:21:57.000Z,92.5
2023-05-07T03:22:55.832Z,92.3
2023-05-07T03:24:12.025Z,92.1
2023-05-07T03:25:46.000Z,92.2
2023-05-07T03:27:02.412Z,92.3
2023-05-07T03:28:18.000Z,92.3
2023-05-07T03:29:34.796Z,92.2
2023-05-07T03:30:50.014Z,91.7
2023-05-07T03:31:48.212Z,91.9
2023-05-07T03:33:21.000Z,92.1
2023-05-07T03:34:37.000Z,91.8
2023-05-07T03:35:53.000Z,91.8
2023-05-07T03:36:51.027Z,91.8
2023-05-07T03:38:25.215Z,91.8
2023-05-07T03:39:41.414Z,91.9
2023-05-07T03:40:57.000Z,91.9
2023-05-07T03:42:13.801Z,92.1
2023-05-07T03:43:29.993Z,92.2
2023-05-07T03:44:46.199Z,92.5
2023-05-07T03:45:44.381Z,92.5
2023-05-07T03:47:18.571Z,92.5
2023-05-07T03:48:34.000Z,92.7
2023-05-07T03:49:50.958Z,92.7
2023-05-07T03:51:07.154Z,92.8
2023-05-07T03:52:23.000Z,93
2023-05-07T03:53:39.543Z,93.1
2023-05-07T03:54:37.736Z,93.1
2023-05-07T03:56:10.000Z,92.9
2023-05-07T03:57:27.142Z,93.1
2023-05-07T03:58:43.330Z,93.2
2023-05-07T03:59:59.523Z,93.4
2023-05-07T04:01:15.000Z,93.3
2023-05-07T04:02:14.058Z,93.3
2023-05-07T04:03:48.000Z,93.5
2023-05-07T04:05:04.000Z,93.6
2023-05-07T04:06:20.000Z,93.6
2023-05-07T04:07:18.832Z,93.4
2023-05-07T04:09:19.000Z,93.5
2023-05-07T04:10:09.220Z,93.4
2023-05-07T04:11:25.412Z,93.3
2023-05-07T04:12:41.000Z,93.3
2023-05-07T04:13:57.807Z,93.3
2023-05-07T04:14:55.008Z,93.1
2023-05-07T04:16:11.201Z,93.3
2023-05-07T04:17:45.000Z,93.3
2023-05-07T04:19:01.000Z,92.9
2023-05-07T04:19:59.781Z,93.1
2023-05-07T04:21:33.974Z,93.1
2023-05-07T04:22:50.166Z,93.1
2023-05-07T04:24:06.000Z,93.1
2023-05-07T04:25:22.000Z,93.2
2023-05-07T04:26:38.747Z,93.2
2023-05-07T04:27:54.932Z,93.4
2023-05-07T04:28:53.133Z,93.1
2023-05-07T04:30:26.353Z,92.8
2023-05-07T04:31:42.000Z,92.8
2023-05-07T04:32:40.739Z,93
2023-05-07T04:34:13.959Z,92.9
2023-05-07T04:35:12.152Z,92.8
2023-05-07T04:36:45.369Z,92.8
2023-05-07T04:38:00.584Z,92.7
2023-05-07T04:38:58.774Z,92.5
2023-05-07T04:40:32.973Z,92.5
2023-05-07T04:41:49.000Z,92.5
2023-05-07T04:43:05.354Z,92.5
2023-05-07T04:44:21.548Z,92.1
2023-05-07T04:45:37.736Z,91.4
2023-05-07T04:46:53.934Z,91.4
2023-05-07T04:47:52.127Z,91.5
2023-05-07T04:49:26.000Z,91
2023-05-07T04:50:42.511Z,91.2
2023-05-07T04:51:58.704Z,91.2
2023-05-07T04:52:56.900Z,91
2023-05-07T04:54:31.000Z,90.8
2023-05-07T04:55:46.000Z,91
2023-05-07T04:57:02.000Z,90.9
2023-05-07T04:58:18.000Z,90.7
2023-05-07T04:59:34.000Z,90.7
2023-05-07T05:00:51.000Z,90.5
2023-05-07T05:02:07.000Z,90.5
2023-05-07T05:03:05.461Z,90.2
2023-05-07T05:04:39.807Z,90.3
2023-05-07T05:05:38.000Z,89.8
2023-05-07T05:07:12.202Z,89.5
2023-05-07T05:08:27.402Z,89.3
2023-05-07T05:09:43.602Z,89.4
2023-05-07T05:10:59.785Z,89.5
2023-05-07T05:12:15.000Z,89.2
2023-05-07T05:13:32.183Z,88.9
2023-05-07T05:14:48.365Z,88.7
2023-05-07T05:16:04.564Z,88.8
2023-05-07T05:17:02.757Z,88.6
2023-05-07T05:18:18.950Z,88.3
2023-05-07T05:19:53.143Z,88.1
2023-05-07T05:21:09.000Z,88
2023-05-07T05:22:25.000Z,87.8
2023-05-07T05:23:41.000Z,87.8
2023-05-07T05:24:57.919Z,87.5
2023-05-07T05:25:56.109Z,87.8
2023-05-07T05:27:29.000Z,87.4
2023-05-07T05:28:45.000Z,87.8
2023-05-07T05:30:01.704Z,87.8
2023-05-07T05:30:58.925Z,87.5
2023-05-07T05:32:33.000Z,87.7
2023-05-07T05:33:49.312Z,87.8
2023-05-07T05:35:05.000Z,88.1
2023-05-07T05:36:03.698Z,87.8
2023-05-07T05:37:37.000Z,87.7
2023-05-07T05:38:54.000Z,87.5
2023-05-07T05:40:10.279Z,87.4
2023-05-07T05:41:26.472Z,87.5
2023-05-07T05:42:42.665Z,87.5
2023-05-07T05:43:58.862Z,87.2
2023-05-07T05:45:15.059Z,87.3
2023-05-07T05:46:31.245Z,87.2
2023-05-07T05:47:29.438Z,87.1
2023-05-07T05:48:45.631Z,87.3
2023-05-07T05:50:18.841Z,87.4
2023-05-07T05:51:17.034Z,87.1
2023-05-07T05:52:51.000Z,86.6
2023-05-07T05:54:07.000Z,86.5
2023-05-07T05:55:23.613Z,86.4
2023-05-07T05:56:21.806Z,86.4
2023-05-07T05:57:55.000Z,86.3
2023-05-07T05:59:11.219Z,86.3
2023-05-07T06:00:27.415Z,85.9
2023-05-07T06:01:24.631Z,86.1
2023-05-07T06:03:25.000Z,86.5
2023-05-07T06:03:56.030Z,86.5
2023-05-07T06:05:30.000Z,86.3
2023-05-07T06:06:46.411Z,86
2023-05-07T06:08:02.611Z,86.1
2023-05-07T06:09:00.802Z,86
2023-05-07T06:10:34.995Z,86.3
2023-05-07T06:11:51.000Z,86.4
2023-05-07T06:13:07.000Z,86.2
2023-05-07T06:14:05.574Z,86
2023-05-07T06:15:39.780Z,85.9
2023-05-07T06:16:55.968Z,86.3
2023-05-07T06:17:54.153Z,86
2023-05-07T06:19:10.346Z,85.8
2023-05-07T06:20:44.000Z,85.1
2023-05-07T06:21:42.732Z,85.2
2023-05-07T06:23:16.935Z,84.8
2023-05-07T06:24:32.000Z,84.8
2023-05-07T06:26:14.000Z,84.5
2023-05-07T06:26:46.520Z,84.7
2023-05-07T06:28:20.861Z,85.1
2023-05-07T06:29:37.050Z,84.8
2023-05-07T06:30:53.396Z,84.5
2023-05-07T06:31:51.586Z,84.3
2023-05-07T06:33:24.805Z,84.3
2023-05-07T06:34:23.121Z,85.5
2023-05-07T06:35:57.314Z,84.9
2023-05-07T06:37:13.507Z,84.9
2023-05-07T06:38:29.697Z,85.2
2023-05-07T06:39:45.901Z,84.5
2023-05-07T06:41:02.092Z,84.3
2023-05-07T06:42:18.289Z,84.1
2023-05-07T06:43:34.000Z,83.7
2023-05-07T06:44:50.670Z,84.2
2023-05-07T06:46:06.856Z,83.3
2023-05-07T06:47:23.000Z,82.8
2023-05-07T06:48:39.248Z,82.4
2023-05-07T06:49:55.436Z,82.4
2023-05-07T06:51:11.000Z,82.3
2023-05-07T06:52:09.822Z,82.1
2023-05-07T06:53:43.030Z,82.1
2023-05-07T06:54:41.224Z,82.4
2023-05-07T06:56:15.000Z,82.2
2023-05-07T06:57:31.610Z,81.8
2023-05-07T06:58:47.000Z,81.4
2023-05-07T06:59:45.995Z,81.4
2023-05-07T07:01:20.000Z,81.3
2023-05-07T07:02:36.000Z,80.7
2023-05-07T07:03:52.571Z,80.8
2023-05-07T07:04:50.768Z,80.9
2023-05-07T07:06:24.961Z,81.2
2023-05-07T07:07:41.156Z,80.7
2023-05-07T07:08:56.381Z,80.6
2023-05-07T07:10:11.000Z,80.1
2023-05-07T07:11:09.776Z,79.6
2023-05-07T07:12:25.969Z,80
2023-05-07T07:14:00.000Z,80.3
2023-05-07T07:15:16.000Z,79.7
2023-05-07T07:16:32.550Z,79.8
2023-05-07T07:17:48.000Z,79
2023-05-07T07:19:31.000Z,78.5
2023-05-07T07:20:21.127Z,78.8
2023-05-07T07:21:37.000Z,79.6
2023-05-07T07:22:53.513Z,79.3
2023-05-07T07:24:09.708Z,78.9
2023-05-07T07:25:25.899Z,79.3
2023-05-07T07:26:42.000Z,79.7
2023-05-07T07:27:58.000Z,78.8
2023-05-07T07:29:14.000Z,79.2
2023-05-07T07:30:12.672Z,79.3
2023-05-07T07:31:45.880Z,79.3
2023-05-07T07:33:02.069Z,79.3
2023-05-07T07:34:18.000Z,79
2023-05-07T07:35:34.466Z,79.6
2023-05-07T07:36:50.000Z,79.9
2023-05-07T07:37:48.846Z,78.8
2023-05-07T07:39:23.000Z,79.5
2023-05-07T07:40:39.000Z,79.4
2023-05-07T07:41:55.431Z,78.9
2023-05-07T07:43:11.614Z,78.3
2023-05-07T07:44:26.000Z,78
2023-05-07T07:45:25.031Z,77.8
2023-05-07T07:46:59.225Z,77
2023-05-07T07:48:15.417Z,77.4
2023-05-07T07:49:31.000Z,77.6
2023-05-07T07:50:47.808Z,77.1
2023-05-07T07:52:04.000Z,77
2023-05-07T07:53:20.000Z,77.3
2023-05-07T07:54:36.389Z,76.3
2023-05-07T07:55:52.587Z,76.6
2023-05-07T07:57:07.786Z,76.3
2023-05-07T07:58:23.989Z,76.7
2023-05-07T07:59:40.171Z,76
2023-05-07T08:00:56.373Z,76.8
2023-05-07T08:02:12.553Z,76
2023-05-07T08:03:28.758Z,75.9
2023-05-07T08:04:44.000Z,75.7
2023-05-07T08:06:01.137Z,75.6
2023-05-07T08:07:17.000Z,74.6
2023-05-07T08:08:33.528Z,75.1
2023-05-07T08:09:49.723Z,74.9
2023-05-07T08:10:47.909Z,74.4
2023-05-07T08:12:21.000Z,73.8
2023-05-07T08:13:37.327Z,74.2
2023-05-07T08:14:52.000Z,74.7
2023-05-07T08:15:50.724Z,74.3
2023-05-07T08:17:24.926Z,74.5
2023-05-07T08:18:41.000Z,73.7
2023-05-07T08:19:57.312Z,73.4
2023-05-07T08:21:13.000Z,73.7
2023-05-07T08:22:29.000Z,73.1
2023-05-07T08:23:27.883Z,72.9
2023-05-07T08:25:02.000Z,73.1
2023-05-07T08:26:18.284Z,72.9
2023-05-07T08:27:34.458Z,72.3
2023-05-07T08:29:17.000Z,72.4
2023-05-07T08:30:06.000Z,72.1
2023-05-07T08:31:23.000Z,72.3
2023-05-07T08:32:39.000Z,71.7
2023-05-07T08:34:22.000Z,72
2023-05-07T08:35:10.639Z,71.6
2023-05-07T08:36:08.831Z,72
2023-05-07T08:37:43.024Z,72.3
2023-05-07T08:38:59.216Z,71.7
2023-05-07T08:40:15.410Z,72
2023-05-07T08:41:31.604Z,72
2023-05-07T08:42:47.802Z,72.5
2023-05-07T08:44:03.000Z,71.8
2023-05-07T08:45:20.185Z,71.4
2023-05-07T08:46:18.378Z,70.9
2023-05-07T08:47:52.000Z,70.9
2023-05-07T08:49:08.765Z,70.4
2023-05-07T08:50:24.953Z,71
2023-05-07T08:51:41.000Z,71.4
2023-05-07T08:52:57.345Z,70.8
2023-05-07T08:54:13.533Z,71.2
2023-05-07T08:55:28.000Z,70.4
2023-05-07T08:56:44.000Z,70.5
2023-05-07T08:58:01.000Z,70.4
2023-05-07T08:59:17.325Z,70.3
2023-05-07T09:00:33.000Z,70.1
2023-05-07T09:01:49.716Z,70.2
2023-05-07T09:03:05.908Z,69.1
2023-05-07T09:04:22.101Z,69.9
2023-05-07T09:05:38.000Z,69.3
2023-05-07T09:06:54.487Z,68.4
2023-05-07T09:08:10.000Z,69.3
2023-05-07T09:09:26.875Z,69.3
2023-05-07T09:10:43.071Z,69.1
2023-05-07T09:11:59.270Z,69.8
2023-05-07T09:13:14.468Z,69.5
2023-05-07T09:14:30.659Z,68.8
2023-05-07T09:15:46.000Z,68.7
2023-05-07T09:17:03.000Z,68.2
2023-05-07T09:18:19.252Z,68
2023-05-07T09:19:35.000Z,68.6
2023-05-07T09:20:51.633Z,68.5
2023-05-07T09:22:07.000Z,68.7
2023-05-07T09:23:24.000Z,68.8
2023-05-07T09:24:40.225Z,68.3
2023-05-07T09:26:22.000Z,68.6
2023-05-07T09:27:11.624Z,69.1
2023-05-07T09:28:27.814Z,68.7
2023-05-07T09:29:44.011Z,68.9
2023-05-07T09:31:00.000Z,68
2023-05-07T09:32:16.397Z,68.1
2023-05-07T09:33:32.583Z,68.1
2023-05-07T09:34:48.000Z,67.3
2023-05-07T09:36:04.986Z,67.6
2023-05-07T09:37:03.166Z,66.9
2023-05-07T09:38:37.358Z,67.4
2023-05-07T09:39:53.559Z,67.8
2023-05-07T09:41:09.750Z,67.6
2023-05-07T09:42:25.936Z,67.3
2023-05-07T09:43:42.133Z,66.3
2023-05-07T09:44:39.338Z,66
2023-05-07T09:46:13.000Z,66.1
2023-05-07T09:47:29.000Z,66.1
2023-05-07T09:49:12.000Z,65.5
2023-05-07T09:50:02.000Z,65.9
2023-05-07T09:51:18.303Z,66
2023-05-07T09:52:34.507Z,64.9
2023-05-07T09:53:50.000Z,64.3
2023-05-07T09:55:06.877Z,64.2
2023-05-07T09:56:23.088Z,63.8
2023-05-07T09:57:39.281Z,63.2
2023-05-07T09:58:55.463Z,63.2
2023-05-07T10:00:11.000Z,64.1
2023-05-07T10:01:27.851Z,64.5
2023-05-07T10:02:44.044Z,64
2023-05-07T10:04:00.239Z,64.3
2023-05-07T10:05:16.433Z,65.4
2023-05-07T10:06:32.000Z,63.9
2023-05-07T10:07:48.813Z,63.4
2023-05-07T10:09:05.000Z,63.8
2023-05-07T10:10:03.204Z,62.9
2023-05-07T10:11:37.396Z,64
2023-05-07T10:12:53.000Z,63.9
2023-05-07T10:14:09.000Z,62.6
2023-05-07T10:15:07.976Z,62.1
2023-05-07T10:16:42.000Z,62.6
2023-05-07T10:17:58.365Z,61.8
2023-05-07T10:19:14.567Z,63
2023-05-07T10:20:29.770Z,62.6
2023-05-07T10:21:45.967Z,62.9
2023-05-07T10:22:44.151Z,62.1
2023-05-07T10:24:18.346Z,62.6
2023-05-07T10:25:34.537Z,62.2
2023-05-07T10:26:50.000Z,62
2023-05-07T10:27:48.922Z,62.3
2023-05-07T10:29:23.115Z,62.4
2023-05-07T10:30:21.308Z,62.9
2023-05-07T10:31:55.000Z,62.5
2023-05-07T10:33:11.000Z,62.8
2023-05-07T10:34:27.000Z,62.5
2023-05-07T10:35:44.081Z,62
2023-05-07T10:36:59.000Z,61.5
2023-05-07T10:38:15.000Z,60.3
2023-05-07T10:39:31.000Z,59.8
2023-05-07T10:40:47.870Z,60.2
2023-05-07T10:42:04.000Z,59.9
2023-05-07T10:43:02.253Z,61.5
2023-05-07T10:44:36.000Z,61.4
2023-05-07T10:45:52.640Z,63.3
2023-05-07T10:47:08.832Z,62.2
2023-05-07T10:48:07.025Z,61
2023-05-07T10:49:41.000Z,61.2
2023-05-07T10:50:57.411Z,61.5
2023-05-07T10:52:13.603Z,62.5
2023-05-07T10:53:29.810Z,62.4
2023-05-07T10:54:46.000Z,61.7
2023-05-07T10:56:02.302Z,62.1
2023-05-07T10:57:18.000Z,61.4
2023-05-07T10:58:34.685Z,61.5
2023-05-07T10:59:50.888Z,62.8
2023-05-07T11:01:07.075Z,61.4
2023-05-07T11:02:23.272Z,61.1
2023-05-07T11:03:39.000Z,59.9
2023-05-07T11:04:55.659Z,58.9
2023-05-07T11:06:11.000Z,58.9
2023-05-07T11:07:28.000Z,59.2
2023-05-07T11:08:44.236Z,59.5
2023-05-07T11:10:00.000Z,60.3
2023-05-07T11:10:58.618Z,60
2023-05-07T11:12:31.824Z,60.5
2023-05-07T11:13:30.019Z,60.7
2023-05-07T11:15:04.207Z,60.3
2023-05-07T11:16:20.000Z,59.2
2023-05-07T11:17:36.000Z,59.3
2023-05-07T11:18:52.802Z,58
2023-05-07T11:20:35.000Z,58.1
2023-05-07T11:21:07.177Z,58.5
2023-05-07T11:22:41.369Z,57.9
2023-05-07T11:23:57.562Z,58.9
2023-05-07T11:25:13.000Z,58.3
2023-05-07T11:26:29.947Z,58.5
2023-05-07T11:27:46.000Z,58.8
2023-05-07T11:29:02.000Z,59
2023-05-07T11:30:18.000Z,58.1
2023-05-07T11:31:34.000Z,58.8
2023-05-07T11:32:50.000Z,58.9
2023-05-07T11:34:07.000Z,59.6
2023-05-07T11:35:22.322Z,60.1
2023-05-07T11:36:38.514Z,60
2023-05-07T11:37:54.000Z,60.2
2023-05-07T11:38:52.902Z,60.8
2023-05-07T11:40:27.000Z,61
2023-05-07T11:41:43.000Z,61.7
2023-05-07T11:42:59.484Z,60.7
2023-05-07T11:44:15.678Z,60.1
2023-05-07T11:45:31.000Z,58.5
2023-05-07T11:46:30.066Z,58.9
2023-05-07T11:48:04.000Z,57.9
2023-05-07T11:49:20.465Z,58
2023-05-07T11:50:36.000Z,58.9
2023-05-07T11:51:52.845Z,57.4
2023-05-07T11:53:09.037Z,57.3
2023-05-07T11:54:24.000Z,58.6
2023-05-07T11:55:40.000Z,58.2
2023-05-07T11:56:56.641Z,58.4
2023-05-07T11:58:12.842Z,57.4
2023-05-07T11:59:11.028Z,57
2023-05-07T12:00:45.000Z,57
2023-05-07T12:02:01.420Z,58.1
2023-05-07T12:03:17.000Z,57.7
2023-05-07T12:04:15.808Z,58.6
2023-05-07T12:05:50.016Z,59.2
2023-05-07T12:07:06.198Z,58.3
2023-05-07T12:08:22.000Z,58.5
2023-05-07T12:09:38.599Z,57.9
2023-05-07T12:10:54.000Z,58.4
2023-05-07T12:12:10.985Z,58.2
2023-05-07T12:13:26.197Z,57.3
2023-05-07T12:14:42.000Z,58.7
2023-05-07T12:15:58.000Z,58.9
2023-05-07T12:17:14.000Z,58.5
2023-05-07T12:18:30.969Z,57.6
2023-05-07T12:19:47.000Z,58
2023-05-07T12:21:03.358Z,56.4
2023-05-07T12:22:19.566Z,56.3
2023-05-07T12:23:35.758Z,56.8
2023-05-07T12:24:33.943Z,57
2023-05-07T12:26:08.000Z,56.2
2023-05-07T12:27:24.334Z,55.4
2023-05-07T12:28:40.530Z,56.1
2023-05-07T12:29:56.731Z,56.4
2023-05-07T12:30:54.920Z,56.1
2023-05-07T12:32:29.115Z,57.3
2023-05-07T12:33:45.311Z,56.2
2023-05-07T12:35:01.505Z,56.2
2023-05-07T12:36:17.701Z,55.7
2023-05-07T12:37:33.912Z,54.9
2023-05-07T12:38:50.000Z,56.1
2023-05-07T12:39:47.301Z,57
2023-05-07T12:41:21.497Z,57.9
2023-05-07T12:42:37.689Z,57.6
2023-05-07T12:44:20.000Z,57
2023-05-07T12:45:10.000Z,56.7
2023-05-07T12:46:26.292Z,56.9
2023-05-07T12:47:42.479Z,57.5
2023-05-07T12:48:58.000Z,58
2023-05-07T12:49:56.862Z,57.1
2023-05-07T12:51:31.000Z,57.3
2023-05-07T12:52:47.246Z,57
2023-05-07T12:54:30.000Z,56.5
2023-05-07T12:55:01.642Z,55.6
2023-05-07T12:56:35.000Z,56.7
2023-05-07T12:57:52.000Z,55.9
2023-05-07T12:59:08.000Z,57.2
2023-05-07T13:00:24.421Z,55.4
2023-05-07T13:01:40.617Z,55.5
2023-05-07T13:02:38.811Z,56
2023-05-07T13:04:12.022Z,56
2023-05-07T13:05:28.219Z,57
2023-05-07T13:06:44.000Z,56.6
2023-05-07T13:07:42.607Z,56
2023-05-07T13:09:16.000Z,56.8
2023-05-07T13:10:33.000Z,57.1
2023-05-07T13:11:49.000Z,56.5
2023-05-07T13:13:05.395Z,56.8
2023-05-07T13:14:21.580Z,55.6
2023-05-07T13:15:37.776Z,55.9
2023-05-07T13:16:53.000Z,54.9
2023-05-07T13:18:10.166Z,54.9
2023-05-07T13:19:26.000Z,54.7
2023-05-07T13:20:42.556Z,54.6
2023-05-07T13:21:57.767Z,54.5
2023-05-07T13:23:13.961Z,54.5
2023-05-07T13:24:30.157Z,53.5
2023-05-07T13:25:46.000Z,52.1
2023-05-07T13:27:02.000Z,52.3
2023-05-07T13:28:00.743Z,52.2
2023-05-07T13:29:34.936Z,52.8
2023-05-07T13:30:51.136Z,53.6
2023-05-07T13:32:07.334Z,53.6
2023-05-07T13:33:23.537Z,53.2
2023-05-07T13:34:39.000Z,53.1
2023-05-07T13:35:55.915Z,53.5
2023-05-07T13:37:12.000Z,54.9
2023-05-07T13:38:28.000Z,52.7
2023-05-07T13:39:44.496Z,52.1
2023-05-07T13:41:00.706Z,52.3
2023-05-07T13:42:15.000Z,52.9
2023-05-07T13:43:32.107Z,53
2023-05-07T13:44:48.300Z,53.4
2023-05-07T13:46:04.494Z,54.1
2023-05-07T13:47:20.000Z,53.3
2023-05-07T13:48:36.000Z,52.7
2023-05-07T13:49:53.000Z,53.5
2023-05-07T13:50:51.279Z,53.7
2023-05-07T13:52:25.472Z,52.6
2023-05-07T13:53:41.000Z,53.3
2023-05-07T13:54:57.860Z,52.7
2023-05-07T13:56:14.000Z,52.6
2023-05-07T13:57:30.000Z,52.5
2023-05-07T13:58:46.446Z,52.2
2023-05-07T14:00:01.659Z,52.8
2023-05-07T14:01:17.000Z,52.7
2023-05-07T14:02:16.049Z,52.8
2023-05-07T14:03:50.000Z,53.8
2023-05-07T14:05:06.439Z,52.9
2023-05-07T14:06:22.628Z,53.3
2023-05-07T14:07:38.843Z,53
2023-05-07T14:08:37.024Z,52.6
2023-05-07T14:10:11.000Z,52.5
2023-05-07T14:11:09.414Z,52.5
2023-05-07T14:12:43.000Z,52.9
2023-05-07T14:13:59.000Z,52.3
2023-05-07T14:15:16.000Z,52.6
2023-05-07T14:16:32.000Z,54
2023-05-07T14:17:48.389Z,53.7
2023-05-07T14:19:04.597Z,53.6
2023-05-07T14:20:20.000Z,53.3
2023-05-07T14:21:36.000Z,53.3
2023-05-07T14:22:53.000Z,53.6
2023-05-07T14:23:51.365Z,53.9
2023-05-07T14:25:25.560Z,54.1
2023-05-07T14:26:40.768Z,53.3
2023-05-07T14:27:56.000Z,53.9
2023-05-07T14:29:13.166Z,53.9
2023-05-07T14:30:29.000Z,54.2
2023-05-07T14:31:27.550Z,54.1
2023-05-07T14:33:01.000Z,55
2023-05-07T14:33:59.941Z,55
2023-05-07T14:35:34.000Z,54.8
2023-05-07T14:36:50.335Z,54.9
2023-05-07T14:38:33.000Z,54.5
2023-05-07T14:39:22.722Z,54.4
2023-05-07T14:40:38.918Z,53.9
2023-05-07T14:41:55.119Z,54.9
2023-05-07T14:43:11.000Z,54.8
2023-05-07T14:44:27.504Z,54.3
2023-05-07T14:45:42.000Z,53.6
2023-05-07T14:46:58.907Z,53.2
2023-05-07T14:48:15.108Z,52.6
2023-05-07T14:49:31.296Z,52.4
2023-05-07T14:50:47.000Z,53.1
2023-05-07T14:52:03.687Z,52.1
2023-05-07T14:53:19.000Z,51.8
2023-05-07T14:54:36.077Z,51.4
2023-05-07T14:55:52.000Z,52.6
2023-05-07T14:57:08.000Z,52.9
2023-05-07T14:58:24.658Z,52.1
2023-05-07T14:59:22.857Z,52.7
2023-05-07T15:00:57.000Z,54.1
2023-05-07T15:01:55.247Z,53.7
2023-05-07T15:03:28.461Z,53.4
2023-05-07T15:04:44.000Z,52.6
2023-05-07T15:06:00.000Z,51.5
2023-05-07T15:07:17.043Z,51.1
2023-05-07T15:08:33.239Z,49.4
2023-05-07T15:09:49.439Z,48.7
2023-05-07T15:11:05.000Z,48.6
2023-05-07T15:12:03.825Z,47.8
2023-05-07T15:13:38.000Z,48.1
2023-05-07T15:15:20.000Z,48.7
2023-05-07T15:16:10.406Z,49.1
2023-05-07T15:17:26.605Z,49.5
2023-05-07T15:18:42.000Z,49.5
2023-05-07T15:20:25.000Z,49
2023-05-07T15:21:14.205Z,48.1
2023-05-07T15:22:30.398Z,48.7
2023-05-07T15:23:46.589Z,49.2
2023-05-07T15:25:02.782Z,49.9
2023-05-07T15:26:18.000Z,50.3
2023-05-07T15:27:17.176Z,49.9
2023-05-07T15:28:51.000Z,50.2
2023-05-07T15:30:07.000Z,50.7
2023-05-07T15:31:23.754Z,51.1
2023-05-07T15:32:39.955Z,51.7
2023-05-07T15:33:56.000Z,52.1
2023-05-07T15:35:12.000Z,51
2023-05-07T15:36:28.000Z,50.3
2023-05-07T15:37:44.730Z,49.8
2023-05-07T15:38:59.944Z,50
2023-05-07T15:40:16.144Z,50.7
2023-05-07T15:41:32.000Z,51.4
2023-05-07T15:42:48.000Z,50
2023-05-07T15:44:04.000Z,50.4
2023-05-07T15:45:02.917Z,51.9
2023-05-07T15:46:37.000Z,52.2
2023-05-07T15:47:53.303Z,52.7
2023-05-07T15:49:09.000Z,53.5
2023-05-07T15:50:25.696Z,54.5
2023-05-07T15:51:41.000Z,54.1
2023-05-07T15:52:40.087Z,53
2023-05-07T15:54:14.000Z,52.2
2023-05-07T15:55:30.478Z,52.4
2023-05-07T15:56:46.000Z,51
2023-05-07T15:58:02.000Z,51.6
2023-05-07T15:59:19.065Z,52.3
2023-05-07T16:00:17.260Z,52.7
2023-05-07T16:01:50.472Z,53.1
2023-05-07T16:02:48.668Z,52.5
2023-05-07T16:04:22.000Z,50.4
2023-05-07T16:05:21.058Z,48.5
2023-05-07T16:06:55.000Z,47.6
2023-05-07T16:08:11.000Z,47.1
2023-05-07T16:09:27.000Z,46.7
2023-05-07T16:10:25.839Z,47.3
2023-05-07T16:12:00.000Z,47.2
2023-05-07T16:12:58.229Z,47.9
2023-05-07T16:14:32.000Z,49.6
2023-05-07T16:15:30.619Z,49.8
2023-05-07T16:17:04.000Z,47.8
2023-05-07T16:18:03.009Z,47.3
2023-05-07T16:19:37.000Z,47.6
2023-05-07T16:20:53.000Z,47.8
2023-05-07T16:22:09.596Z,49
2023-05-07T16:23:07.790Z,47.5
2023-05-07T16:24:41.978Z,46.9
2023-05-07T16:25:58.187Z,47.2
2023-05-07T16:27:13.389Z,46.5
2023-05-07T16:28:29.592Z,45.8
2023-05-07T16:29:45.000Z,46
2023-05-07T16:31:01.000Z,46.4
2023-05-07T16:32:18.171Z,47.5
2023-05-07T16:33:34.367Z,47.4
2023-05-07T16:34:32.563Z,47.5
2023-05-07T16:36:06.754Z,48.3
2023-05-07T16:37:22.950Z,48.6
2023-05-07T16:38:39.158Z,49.5
2023-05-07T16:39:55.354Z,49.5
2023-05-07T16:41:11.000Z,50.2
2023-05-07T16:42:54.000Z,50.6
2023-05-07T16:43:43.934Z,51
2023-05-07T16:45:00.000Z,51.3
2023-05-07T16:46:16.000Z,51.5
2023-05-07T16:47:59.000Z,52.7
2023-05-07T16:48:48.700Z,52.6
2023-05-07T16:50:04.897Z,52.9
2023-05-07T16:51:03.095Z,53.3
2023-05-07T16:52:37.000Z,53.6
2023-05-07T16:53:35.487Z,54.3
2023-05-07T16:55:09.000Z,55.1
2023-05-07T16:56:07.879Z,55.5
2023-05-07T16:57:42.063Z,55.3
2023-05-07T16:58:58.000Z,55.8